createdAt,value
2023-02-12T00:01:29.690Z,10.13
2023-02-12T00:03:58.674Z,9.73
2023-02-12T00:06:25.440Z,10.25
2023-02-12T00:08:56.893Z,10.73
2023-02-12T00:11:29.086Z,9.98
2023-02-12T00:13:56.663Z,10.18
2023-02-12T00:16:30.152Z,10.60
2023-02-12T00:19:03.116Z,10.32
2023-02-12T00:21:31.858Z,10.70
2023-02-12T00:23:58.555Z,11.45
2023-02-12T00:26:25.236Z,9.80
2023-02-12T00:28:52.300Z,10.43
2023-02-12T00:31:26.617Z,11.18
2023-02-12T00:33:53.814Z,11.15
2023-02-12T00:36:27.190Z,11.68
2023-02-12T00:38:55.403Z,11.43
2023-02-12T00:41:23.261Z,11.03
2023-02-12T00:43:50.252Z,11.13
2023-02-12T00:46:19.550Z,11.55
2023-02-12T00:48:46.116Z,11.63
2023-02-12T00:51:15.462Z,12.57
2023-02-12T00:53:44.183Z,12.90
2023-02-12T00:56:10.780Z,11.82
2023-02-12T00:58:39.467Z,11.43
2023-02-12T01:01:06.093Z,12.18
2023-02-12T01:03:34.981Z,11.63
2023-02-12T01:06:01.621Z,10.67
2023-02-12T01:08:28.262Z,10.82
2023-02-12T01:11:03.119Z,12.63
2023-02-12T01:13:33.850Z,12.50
2023-02-12T01:16:22.148Z,12.10
2023-02-12T01:18:55.535Z,11.90
2023-02-12T01:21:25.598Z,11.73
2023-02-12T01:23:52.470Z,10.10
2023-02-12T01:26:20.547Z,12.10
2023-02-12T01:28:54.946Z,11.98
2023-02-12T01:31:26.961Z,11.10
2023-02-12T01:33:57.785Z,11.70
2023-02-12T01:36:25.417Z,10.95
2023-02-12T01:38:54.367Z,10.95
2023-02-12T01:41:25.592Z,10.70
2023-02-12T01:44:32.067Z,11.83
2023-02-12T01:47:04.211Z,10.05
2023-02-12T01:49:38.861Z,11.05
2023-02-12T01:52:10.145Z,10.52
2023-02-12T01:54:39.965Z,11.43
2023-02-12T01:57:11.889Z,11.07
2023-02-12T01:59:42.890Z,10.32
2023-02-12T02:02:11.855Z,11.68
2023-02-12T02:04:50.781Z,11.88
2023-02-12T02:07:17.468Z,11.30
2023-02-12T02:09:44.464Z,11.63
2023-02-12T02:12:37.216Z,10.95
2023-02-12T02:15:04.979Z,11.20
2023-02-12T02:17:53.573Z,11.15
2023-02-12T02:20:38.989Z,11.32
2023-02-12T02:23:26.912Z,10.80
2023-02-12T02:26:24.281Z,10.90
2023-02-12T02:29:35.610Z,10.50
2023-02-12T02:32:23.411Z,10.85
2023-02-12T02:35:13.106Z,11.30
2023-02-12T02:37:45.404Z,10.83
2023-02-12T02:40:17.631Z,10.68
2023-02-12T02:42:52.265Z,10.80
2023-02-12T02:45:34.934Z,12.00
2023-02-12T02:48:18.850Z,12.02
2023-02-12T02:50:54.407Z,10.13
2023-02-12T02:53:31.191Z,10.77
2023-02-12T02:56:02.181Z,10.80
2023-02-12T02:58:39.099Z,11.18
2023-02-12T03:01:24.995Z,11.38
2023-02-12T03:04:12.787Z,10.73
2023-02-12T03:07:17.806Z,9.77
2023-02-12T03:09:50.139Z,10.30
2023-02-12T03:12:28.231Z,11.48
2023-02-12T03:15:03.848Z,11.93
2023-02-12T03:17:35.438Z,11.27
2023-02-12T03:20:13.085Z,10.88
2023-02-12T03:22:48.209Z,10.90
2023-02-12T03:25:28.468Z,11.38
2023-02-12T03:28:02.918Z,11.43
2023-02-12T03:31:01.730Z,11.53
2023-02-12T03:33:30.290Z,10.75
2023-02-12T03:36:31.186Z,10.75
2023-02-12T03:39:07.204Z,11.20
2023-02-12T03:41:53.649Z,11.50
2023-02-12T03:44:26.219Z,11.10
2023-02-12T03:46:55.640Z,11.07
2023-02-12T03:49:22.125Z,10.32
2023-02-12T03:51:51.211Z,10.85
2023-02-12T03:54:22.030Z,11.75
2023-02-12T03:56:56.945Z,11.73
2023-02-12T03:59:24.494Z,11.75
2023-02-12T04:01:53.935Z,10.10
2023-02-12T04:04:21.527Z,10.15
2023-02-12T04:06:50.036Z,11.57
2023-02-12T04:09:22.393Z,9.47
2023-02-12T04:12:13.828Z,11.00
2023-02-12T04:14:58.195Z,9.98
2023-02-12T04:17:48.613Z,11.57
2023-02-12T04:20:43.743Z,10.70
2023-02-12T04:23:23.151Z,10.67
2023-02-12T04:25:59.098Z,10.68
2023-02-12T04:28:32.265Z,10.48
2023-02-12T04:30:58.824Z,10.45
2023-02-12T04:33:34.481Z,11.10
2023-02-12T04:36:09.194Z,10.03
2023-02-12T04:38:41.426Z,10.10
2023-02-12T04:41:13.760Z,10.38
2023-02-12T04:43:40.340Z,11.07
2023-02-12T04:46:09.406Z,11.38
2023-02-12T04:48:54.864Z,11.10
2023-02-12T04:51:26.086Z,10.27
2023-02-12T04:53:52.662Z,11.57
2023-02-12T04:56:23.816Z,10.10
2023-02-12T04:58:50.452Z,10.00
2023-02-12T05:01:17.054Z,9.93
2023-02-12T05:03:43.656Z,12.50
2023-02-12T05:06:12.553Z,11.43
2023-02-12T05:08:39.091Z,11.40
2023-02-12T05:11:07.595Z,11.15
2023-02-12T05:13:35.027Z,10.77
2023-02-12T05:16:10.990Z,12.27
2023-02-12T05:18:37.610Z,11.32
2023-02-12T05:21:05.503Z,10.90
2023-02-12T05:23:35.373Z,10.50
2023-02-12T05:26:04.672Z,11.37
2023-02-12T05:28:33.626Z,10.70
2023-02-12T05:31:06.955Z,10.35
2023-02-12T05:33:33.498Z,10.65
2023-02-12T05:36:05.936Z,10.68
2023-02-12T05:38:35.444Z,11.00
2023-02-12T05:41:26.165Z,11.32
2023-02-12T05:43:53.454Z,10.32
2023-02-12T05:46:21.677Z,10.63
2023-02-12T05:48:50.584Z,10.57
2023-02-12T05:51:22.161Z,11.90
2023-02-12T05:53:51.291Z,11.30
2023-02-12T05:56:22.021Z,11.27
2023-02-12T05:58:53.684Z,10.90
2023-02-12T06:01:27.565Z,11.00
2023-02-12T06:03:57.307Z,11.03
2023-02-12T06:06:26.532Z,11.57
2023-02-12T06:08:58.009Z,10.77
2023-02-12T06:11:24.791Z,11.63
2023-02-12T06:13:51.354Z,11.30
2023-02-12T06:16:28.294Z,12.17
2023-02-12T06:18:58.290Z,11.10
2023-02-12T06:21:26.645Z,10.55
2023-02-12T06:23:53.336Z,11.88
2023-02-12T06:26:21.026Z,10.82
2023-02-12T06:28:51.079Z,10.70
2023-02-12T06:31:28.001Z,12.07
2023-02-12T06:33:56.633Z,12.10
2023-02-12T06:36:28.425Z,12.55
2023-02-12T06:39:00.473Z,11.68
2023-02-12T06:41:26.988Z,11.97
2023-02-12T06:43:55.650Z,11.98
2023-02-12T06:46:24.930Z,11.95
2023-02-12T06:48:59.230Z,12.23
2023-02-12T06:51:29.481Z,11.38
2023-02-12T06:53:56.819Z,11.40
2023-02-12T06:56:24.836Z,11.95
2023-02-12T06:58:57.453Z,11.50
2023-02-12T07:01:26.499Z,11.80
2023-02-12T07:04:05.570Z,11.48
2023-02-12T07:06:34.577Z,10.80
2023-02-12T07:09:07.404Z,10.52
2023-02-12T07:11:38.516Z,10.25
2023-02-12T07:14:08.517Z,10.50
2023-02-12T07:16:35.248Z,11.02
2023-02-12T07:19:04.317Z,10.77
2023-02-12T07:21:33.546Z,10.35
2023-02-12T07:24:02.308Z,11.43
2023-02-12T07:26:28.993Z,11.48
2023-02-12T07:28:59.877Z,11.63
2023-02-12T07:31:26.716Z,11.43
2023-02-12T07:33:55.519Z,12.40
2023-02-12T07:36:28.854Z,11.32
2023-02-12T07:38:57.008Z,12.95
2023-02-12T07:41:32.622Z,11.82
2023-02-12T07:44:07.610Z,11.47
2023-02-12T07:46:39.990Z,12.38
2023-02-12T07:49:11.315Z,11.15
2023-02-12T07:51:38.298Z,11.77
2023-02-12T07:54:05.451Z,11.88
2023-02-12T07:56:35.277Z,11.90
2023-02-12T07:59:12.984Z,11.93
2023-02-12T08:01:42.080Z,11.90
2023-02-12T08:04:13.926Z,12.43
2023-02-12T08:06:45.323Z,11.70
2023-02-12T08:09:14.138Z,12.57
2023-02-12T08:11:42.558Z,13.00
2023-02-12T08:14:12.348Z,12.90
2023-02-12T08:16:43.188Z,12.75
2023-02-12T08:19:19.068Z,12.13
2023-02-12T08:21:50.695Z,12.03
2023-02-12T08:24:17.259Z,12.57
2023-02-12T08:26:44.390Z,12.80
2023-02-12T08:29:16.951Z,12.73
2023-02-12T08:31:46.560Z,12.45
2023-02-12T08:34:30.866Z,12.57
2023-02-12T08:37:03.176Z,13.65
2023-02-12T08:39:30.087Z,11.73
2023-02-12T08:42:02.230Z,12.45
2023-02-12T08:44:33.667Z,14.38
2023-02-12T08:47:00.277Z,12.30
2023-02-12T08:49:32.698Z,12.63
2023-02-12T08:52:01.748Z,12.70
2023-02-12T08:54:34.288Z,13.85
2023-02-12T08:57:04.619Z,12.77
2023-02-12T08:59:33.523Z,13.20
2023-02-12T09:02:00.797Z,13.45
2023-02-12T09:04:30.915Z,12.73
2023-02-12T09:06:59.748Z,13.93
2023-02-12T09:09:29.036Z,13.15
2023-02-12T09:11:57.825Z,12.50
2023-02-12T09:14:26.581Z,13.07
2023-02-12T09:16:57.334Z,14.23
2023-02-12T09:19:24.781Z,13.40
2023-02-12T09:21:57.156Z,12.63
2023-02-12T09:24:25.652Z,12.40
2023-02-12T09:26:52.279Z,13.95
2023-02-12T09:29:21.054Z,13.35
2023-02-12T09:31:47.759Z,13.13
2023-02-12T09:34:14.384Z,13.68
2023-02-12T09:36:40.941Z,12.97
2023-02-12T09:39:07.479Z,12.65
2023-02-12T09:42:01.583Z,12.88
2023-02-12T09:44:52.467Z,13.43
2023-02-12T09:47:42.323Z,13.15
2023-02-12T09:50:33.764Z,12.20
2023-02-12T09:53:04.367Z,8.57
2023-02-12T09:55:37.046Z,9.75
2023-02-12T09:58:11.280Z,8.07
2023-02-12T10:00:42.217Z,8.32
2023-02-12T10:03:15.566Z,5.80
2023-02-12T10:05:58.985Z,8.18
2023-02-12T10:08:31.656Z,8.00
2023-02-12T10:11:31.582Z,7.70
2023-02-12T10:14:22.707Z,5.75
2023-02-12T10:17:02.216Z,8.03
2023-02-12T10:19:47.838Z,8.27
2023-02-12T10:22:48.173Z,7.57
2023-02-12T10:25:52.905Z,7.95
2023-02-12T10:28:25.417Z,6.07
2023-02-12T10:30:59.316Z,5.80
2023-02-12T10:33:38.801Z,7.57
2023-02-12T10:36:42.322Z,7.93
2023-02-12T10:39:14.631Z,6.50
2023-02-12T10:41:58.014Z,7.18
2023-02-12T10:44:24.657Z,7.67
2023-02-12T10:46:53.471Z,7.13
2023-02-12T10:49:21.515Z,7.18
2023-02-12T10:52:03.671Z,7.00
2023-02-12T10:54:41.060Z,7.25
2023-02-12T10:57:17.996Z,7.10
2023-02-12T10:59:48.847Z,7.00
2023-02-12T11:02:33.171Z,6.78
2023-02-12T11:05:23.782Z,7.18
2023-02-12T11:07:54.875Z,7.28
2023-02-12T11:10:29.336Z,7.53
2023-02-12T11:12:58.427Z,7.43
2023-02-12T11:15:31.290Z,7.97
2023-02-12T11:18:10.892Z,7.28
2023-02-12T11:20:43.563Z,6.78
2023-02-12T11:23:33.076Z,8.00
2023-02-12T11:26:01.340Z,7.60
2023-02-12T11:28:32.210Z,7.22
2023-02-12T11:31:20.509Z,7.43
2023-02-12T11:33:50.045Z,7.70
2023-02-12T11:36:29.562Z,7.50
2023-02-12T11:38:59.595Z,7.35
2023-02-12T11:41:38.586Z,6.55
2023-02-12T11:44:33.120Z,6.45
2023-02-12T11:47:09.420Z,6.90
2023-02-12T11:49:59.773Z,6.73
2023-02-12T11:52:39.358Z,6.45
2023-02-12T11:55:23.415Z,6.28
2023-02-12T11:57:55.301Z,6.57
2023-02-12T12:00:30.739Z,6.57
2023-02-12T12:03:19.941Z,6.50
2023-02-12T12:05:57.549Z,6.88
2023-02-12T12:08:29.299Z,6.30
2023-02-12T12:11:20.917Z,6.97
2023-02-12T12:13:57.572Z,6.07
2023-02-12T12:17:34.629Z,6.37
2023-02-12T12:20:15.759Z,5.70
2023-02-12T12:22:42.373Z,6.57
2023-02-12T12:25:08.995Z,6.88
2023-02-12T12:28:03.862Z,5.53
2023-02-12T12:30:41.542Z,6.43
2023-02-12T12:33:33.038Z,5.28
2023-02-12T12:36:14.777Z,6.82
2023-02-12T12:38:44.601Z,6.35
2023-02-12T12:41:23.262Z,5.03
2023-02-12T12:44:01.196Z,6.23
2023-02-12T12:47:09.174Z,6.68
2023-02-12T12:49:38.724Z,5.82
2023-02-12T12:52:25.170Z,6.15
2023-02-12T12:55:12.722Z,5.68
2023-02-12T12:58:12.060Z,5.27
2023-02-12T13:00:51.905Z,5.75
2023-02-12T13:03:27.699Z,6.32
2023-02-12T13:06:07.958Z,6.00
2023-02-12T13:08:51.930Z,6.28
2023-02-12T13:11:45.915Z,5.50
2023-02-12T13:14:34.040Z,5.47
2023-02-12T13:17:09.198Z,6.00
2023-02-12T13:20:06.794Z,6.07
2023-02-12T13:22:44.432Z,5.35
2023-02-12T13:25:17.037Z,5.83
2023-02-12T13:27:47.534Z,5.93
2023-02-12T13:30:14.073Z,5.88
2023-02-12T13:32:46.356Z,5.15
2023-02-12T13:35:22.581Z,5.65
2023-02-12T13:37:53.204Z,5.10
2023-02-12T13:40:28.370Z,5.30
2023-02-12T13:43:20.688Z,6.05
2023-02-12T13:45:51.555Z,5.03
2023-02-12T13:48:39.369Z,4.65
2023-02-12T13:51:16.140Z,5.20
2023-02-12T13:54:04.786Z,5.35
2023-02-12T13:56:47.355Z,5.30
2023-02-12T13:59:32.256Z,4.95
2023-02-12T14:02:02.537Z,4.50
2023-02-12T14:04:29.194Z,5.40
2023-02-12T14:07:05.155Z,5.32
2023-02-12T14:09:51.913Z,5.13
2023-02-12T14:12:24.527Z,5.30
2023-02-12T14:14:55.323Z,5.15
2023-02-12T14:17:31.207Z,5.37
2023-02-12T14:20:26.765Z,5.10
2023-02-12T14:23:06.336Z,4.93
2023-02-12T14:25:44.000Z,5.38
2023-02-12T14:28:51.724Z,4.75
2023-02-12T14:31:18.394Z,3.87
2023-02-12T14:33:46.338Z,4.47
2023-02-12T14:36:32.166Z,5.07
2023-02-12T14:39:03.645Z,4.60
2023-02-12T14:41:38.812Z,4.93
2023-02-12T14:44:40.680Z,5.00
2023-02-12T14:47:31.420Z,5.30
2023-02-12T14:50:03.920Z,4.65
2023-02-12T14:52:36.540Z,4.93
2023-02-12T14:55:07.946Z,5.38
2023-02-12T14:57:40.060Z,5.23
2023-02-12T15:00:35.471Z,5.80
2023-02-12T15:03:16.075Z,5.35
2023-02-12T15:05:54.166Z,5.50
2023-02-12T15:08:39.073Z,5.68
2023-02-12T15:11:33.536Z,4.80
2023-02-12T15:14:29.390Z,5.80
2023-02-12T15:17:03.066Z,5.35
2023-02-12T15:19:50.640Z,5.68
2023-02-12T15:22:39.944Z,5.53
2023-02-12T15:25:33.417Z,5.90
2023-02-12T15:28:06.845Z,5.03
2023-02-12T15:30:36.845Z,5.63
2023-02-12T15:33:07.680Z,5.43
2023-02-12T15:35:44.073Z,4.95
2023-02-12T15:38:24.469Z,4.90
2023-02-12T15:40:57.227Z,5.57
2023-02-12T15:43:30.272Z,5.50
2023-02-12T15:45:57.393Z,4.70
2023-02-12T15:48:36.079Z,4.35
2023-02-12T15:51:18.927Z,5.80
2023-02-12T15:53:46.164Z,5.32
2023-02-12T15:56:15.965Z,5.30
2023-02-12T15:58:53.375Z,5.10
2023-02-12T16:01:25.583Z,5.20
2023-02-12T16:03:58.511Z,4.73
2023-02-12T16:06:29.628Z,5.07
2023-02-12T16:09:03.218Z,5.55
2023-02-12T16:11:33.610Z,5.07
2023-02-12T16:14:16.283Z,4.70
2023-02-12T16:16:55.413Z,4.63
2023-02-12T16:19:33.038Z,4.95
2023-02-12T16:22:05.430Z,4.88
2023-02-12T16:24:47.507Z,5.53
2023-02-12T16:27:23.083Z,4.70
2023-02-12T16:29:55.439Z,4.80
2023-02-12T16:32:37.342Z,4.97
2023-02-12T16:35:08.646Z,4.43
2023-02-12T16:37:35.314Z,4.18
2023-02-12T16:40:26.659Z,5.28
2023-02-12T16:42:53.197Z,4.47
2023-02-12T16:45:28.676Z,4.68
2023-02-12T16:47:58.045Z,3.67
2023-02-12T16:50:27.678Z,4.10
2023-02-12T16:53:04.830Z,3.80
2023-02-12T16:55:32.008Z,3.83
2023-02-12T16:58:03.584Z,4.18
2023-02-12T17:00:30.150Z,3.80
2023-02-12T17:02:57.181Z,3.88
2023-02-12T17:05:27.054Z,3.80
2023-02-12T17:07:53.565Z,4.17
2023-02-12T17:10:20.155Z,4.32
2023-02-12T17:12:54.533Z,4.38
2023-02-12T17:15:29.094Z,4.22
2023-02-12T17:17:55.753Z,4.43
2023-02-12T17:20:22.453Z,4.37
2023-02-12T17:22:59.464Z,3.75
2023-02-12T17:25:26.583Z,4.05
2023-02-12T17:27:58.017Z,4.55
2023-02-12T17:30:26.400Z,4.70
2023-02-12T17:32:55.135Z,4.30
2023-02-12T17:35:21.694Z,4.65
2023-02-12T17:37:48.237Z,4.25
2023-02-12T17:40:17.871Z,4.00
2023-02-12T17:42:46.962Z,4.13
2023-02-12T17:45:13.551Z,4.20
2023-02-12T17:47:40.292Z,3.88
2023-02-12T17:50:13.669Z,5.13
2023-02-12T17:52:45.454Z,5.07
2023-02-12T17:55:15.198Z,4.63
2023-02-12T17:57:41.767Z,5.07
2023-02-12T18:00:14.895Z,4.90
2023-02-12T18:02:43.750Z,4.93
2023-02-12T18:05:10.342Z,4.95
2023-02-12T18:07:39.778Z,4.70
2023-02-12T18:10:08.476Z,4.87
2023-02-12T18:12:35.764Z,5.15
2023-02-12T18:15:07.519Z,4.72
2023-02-12T18:17:35.088Z,4.38
2023-02-12T18:20:01.850Z,4.18
2023-02-12T18:22:30.690Z,4.70
2023-02-12T18:24:59.479Z,4.82
2023-02-12T18:27:26.126Z,4.90
2023-02-12T18:29:52.885Z,4.82
2023-02-12T18:32:19.570Z,5.28
2023-02-12T18:34:46.162Z,5.10
2023-02-12T18:37:13.655Z,4.82
2023-02-12T18:39:40.720Z,4.95
2023-02-12T18:42:08.785Z,5.00
2023-02-12T18:44:35.437Z,4.95
2023-02-12T18:47:02.134Z,5.30
2023-02-12T18:49:28.811Z,5.35
2023-02-12T18:51:56.786Z,5.30
2023-02-12T18:54:23.791Z,6.40
2023-02-12T18:56:53.604Z,5.85
2023-02-12T18:59:20.689Z,5.67
2023-02-12T19:01:52.964Z,6.38
2023-02-12T19:04:21.936Z,6.15
2023-02-12T19:06:52.996Z,6.65
2023-02-12T19:09:26.416Z,6.38
2023-02-12T19:11:55.202Z,7.70
2023-02-12T19:14:23.746Z,8.05
2023-02-12T19:16:53.830Z,7.47
2023-02-12T19:19:21.082Z,7.50
2023-02-12T19:21:52.807Z,6.72
2023-02-12T19:24:20.588Z,7.47
2023-02-12T19:26:54.548Z,6.03
2023-02-12T19:29:21.678Z,6.03
2023-02-12T19:31:48.676Z,5.22
2023-02-12T19:34:22.258Z,5.47
2023-02-12T19:36:49.738Z,5.77
2023-02-12T19:39:21.768Z,5.82
2023-02-12T19:41:51.305Z,6.10
2023-02-12T19:44:21.170Z,6.25
2023-02-12T19:46:49.396Z,6.45
2023-02-12T19:49:27.509Z,7.07
2023-02-12T19:51:57.012Z,7.55
2023-02-12T19:54:24.699Z,6.90
2023-02-12T19:56:55.249Z,6.28
2023-02-12T19:59:23.709Z,6.65
2023-02-12T20:01:50.457Z,5.50
2023-02-12T20:04:20.246Z,4.40
2023-02-12T20:06:49.079Z,5.20
2023-02-12T20:09:18.700Z,4.28
2023-02-12T20:11:45.233Z,5.15
2023-02-12T20:14:13.347Z,4.30
2023-02-12T20:16:43.815Z,5.03
2023-02-12T20:19:31.073Z,5.50
2023-02-12T20:22:01.723Z,5.65
2023-02-12T20:24:32.755Z,5.07
2023-02-12T20:27:01.864Z,3.60
2023-02-12T20:29:29.259Z,4.30
2023-02-12T20:31:56.387Z,4.20
2023-02-12T20:34:25.303Z,4.03
2023-02-12T20:36:52.064Z,4.82
2023-02-12T20:39:20.360Z,4.10
2023-02-12T20:41:47.591Z,5.43
2023-02-12T20:44:21.324Z,6.10
2023-02-12T20:46:52.497Z,5.80
2023-02-12T20:49:22.760Z,5.70
2023-02-12T20:51:50.206Z,5.80
2023-02-12T20:54:17.256Z,6.25
2023-02-12T20:56:44.006Z,7.32
2023-02-12T20:59:10.904Z,7.03
2023-02-12T21:01:39.980Z,7.30
2023-02-12T21:04:11.968Z,7.03
2023-02-12T21:06:40.293Z,7.50
2023-02-12T21:09:09.777Z,7.45
2023-02-12T21:11:41.049Z,8.40
2023-02-12T21:14:25.075Z,7.95
2023-02-12T21:16:56.151Z,8.13
2023-02-12T21:19:23.148Z,8.30
2023-02-12T21:21:49.827Z,7.80
2023-02-12T21:24:23.200Z,7.32
2023-02-12T21:26:51.639Z,6.88
2023-02-12T21:29:21.820Z,8.20
2023-02-12T21:31:52.192Z,7.75
2023-02-12T21:34:23.314Z,8.15
2023-02-12T21:36:53.181Z,8.13
2023-02-12T21:39:36.678Z,7.72
2023-02-12T21:42:06.253Z,8.10
2023-02-12T21:44:38.980Z,8.50
2023-02-12T21:47:06.086Z,8.00
2023-02-12T21:49:35.110Z,7.72
2023-02-12T21:52:04.689Z,7.35
2023-02-12T21:54:34.008Z,7.90
2023-02-12T21:57:01.008Z,7.50
2023-02-12T21:59:32.364Z,7.78
2023-02-12T22:02:00.597Z,7.47
2023-02-12T22:04:32.041Z,7.07
2023-02-12T22:07:03.286Z,7.93
2023-02-12T22:09:30.195Z,7.43
2023-02-12T22:11:57.013Z,8.00
2023-02-12T22:14:25.980Z,7.53
2023-02-12T22:16:54.759Z,7.65
2023-02-12T22:19:21.411Z,8.07
2023-02-12T22:21:51.439Z,7.95
2023-02-12T22:24:20.885Z,7.68
2023-02-12T22:26:47.514Z,7.40
2023-02-12T22:29:15.846Z,8.60
2023-02-12T22:31:49.814Z,8.70
2023-02-12T22:34:19.040Z,8.90
2023-02-12T22:36:46.571Z,8.55
2023-02-12T22:39:14.343Z,9.55
2023-02-12T22:41:42.378Z,7.65
2023-02-12T22:44:13.181Z,7.60
2023-02-12T22:46:43.294Z,7.90
2023-02-12T22:49:14.669Z,8.82
2023-02-12T22:51:41.239Z,8.45
2023-02-12T22:54:12.225Z,8.55
2023-02-12T22:56:41.389Z,8.37
2023-02-12T22:59:10.180Z,7.93
2023-02-12T23:01:39.838Z,8.75
2023-02-12T23:04:06.878Z,7.97
2023-02-12T23:06:36.498Z,8.88
2023-02-12T23:09:06.869Z,8.80
2023-02-12T23:11:35.847Z,8.80
2023-02-12T23:14:05.164Z,8.65
2023-02-12T23:16:32.145Z,8.43
2023-02-12T23:19:03.474Z,8.25
2023-02-12T23:21:31.648Z,8.83
2023-02-12T23:24:01.289Z,8.55
2023-02-12T23:26:31.566Z,7.85
2023-02-12T23:29:02.404Z,8.40
2023-02-12T23:31:31.184Z,8.05
2023-02-12T23:33:59.875Z,8.97
2023-02-12T23:36:26.422Z,8.98
2023-02-12T23:38:55.396Z,8.50
2023-02-12T23:41:24.285Z,7.25
2023-02-12T23:43:50.847Z,8.32
2023-02-12T23:46:19.695Z,8.40
2023-02-12T23:48:50.992Z,8.25
2023-02-12T23:51:19.768Z,7.72
2023-02-12T23:53:48.662Z,8.82
2023-02-12T23:56:15.410Z,8.45
2023-02-12T23:58:41.949Z,7.57
